createdAt,value
2018-05-18T00:01:27.528Z,9.10
2018-05-18T00:03:54.726Z,9.10
2018-05-18T00:06:21.897Z,9.10
2018-05-18T00:08:48.271Z,9.00
2018-05-18T00:11:15.377Z,9.10
2018-05-18T00:13:42.682Z,9.00
2018-05-18T00:16:09.069Z,9.10
2018-05-18T00:18:36.350Z,9.10
2018-05-18T00:21:03.733Z,8.90
2018-05-18T00:23:30.846Z,8.90
2018-05-18T00:25:58.822Z,9.00
2018-05-18T00:28:25.152Z,8.90
2018-05-18T00:30:51.464Z,8.90
2018-05-18T00:33:17.846Z,8.80
2018-05-18T00:45:29.182Z,8.80
2018-05-18T00:47:55.587Z,8.70
2018-05-18T00:50:21.986Z,8.70
2018-05-18T00:52:48.362Z,8.60
2018-05-18T00:55:27.812Z,8.70
2018-05-18T00:57:55.009Z,8.60
2018-05-18T01:00:22.145Z,8.70
2018-05-18T01:02:48.630Z,8.70
2018-05-18T01:05:14.972Z,8.60
2018-05-18T01:07:41.373Z,8.50
2018-05-18T01:10:07.804Z,8.60
2018-05-18T01:12:34.151Z,8.70
2018-05-18T01:15:00.506Z,8.70
2018-05-18T01:17:26.841Z,8.60
2018-05-18T01:19:53.429Z,8.50
2018-05-18T01:22:20.784Z,8.50
2018-05-18T01:24:48.614Z,8.40
2018-05-18T01:27:16.494Z,8.50
2018-05-18T01:29:42.862Z,8.50
2018-05-18T01:32:09.279Z,8.60
2018-05-18T01:34:36.535Z,8.60
2018-05-18T01:37:03.604Z,8.50
2018-05-18T01:39:31.502Z,8.50
2018-05-18T01:41:57.958Z,8.50
2018-05-18T01:44:27.143Z,8.50
2018-05-18T01:46:53.489Z,8.50
2018-05-18T01:49:19.880Z,8.40
2018-05-18T01:51:47.675Z,8.40
2018-05-18T01:54:14.023Z,8.30
2018-05-18T01:56:41.171Z,8.30
2018-05-18T01:59:07.516Z,8.40
2018-05-18T02:01:35.543Z,8.30
2018-05-18T02:04:02.514Z,8.20
2018-05-18T02:06:28.883Z,8.20
2018-05-18T02:11:28.966Z,8.10
2018-05-18T02:13:56.004Z,8.10
2018-05-18T02:16:22.344Z,8.10
2018-05-18T02:18:50.504Z,7.90
2018-05-18T02:21:17.662Z,7.80
2018-05-18T02:23:45.212Z,7.90
2018-05-18T02:26:12.563Z,7.80
2018-05-18T02:28:38.995Z,7.90
2018-05-18T02:31:06.317Z,7.90
2018-05-18T02:33:33.974Z,7.90
2018-05-18T02:45:46.108Z,7.80
2018-05-18T02:48:13.507Z,7.80
2018-05-18T02:50:41.914Z,7.70
2018-05-18T02:53:08.363Z,7.70
2018-05-18T02:55:34.810Z,7.70
2018-05-18T02:58:01.248Z,7.70
2018-05-18T03:00:27.972Z,7.70
2018-05-18T03:02:54.372Z,7.80
2018-05-18T03:05:20.817Z,7.90
2018-05-18T03:07:48.091Z,8.00
2018-05-18T03:10:16.095Z,8.10
2018-05-18T03:12:42.939Z,8.20
2018-05-18T03:15:10.339Z,8.30
2018-05-18T03:17:36.726Z,8.20
2018-05-18T03:20:03.135Z,8.20
2018-05-18T03:22:32.628Z,8.20
2018-05-18T03:24:59.288Z,8.30
2018-05-18T03:27:26.621Z,8.40
2018-05-18T03:29:52.928Z,8.50
2018-05-18T03:32:19.252Z,8.60
2018-05-18T03:34:47.128Z,8.70
2018-05-18T03:37:14.353Z,8.70
2018-05-18T03:39:40.673Z,8.70
2018-05-18T03:42:07.046Z,8.90
2018-05-18T03:44:33.386Z,8.90
2018-05-18T03:46:59.683Z,8.90
2018-05-18T03:49:25.996Z,8.90
2018-05-18T03:51:52.428Z,8.90
2018-05-18T03:54:18.783Z,9.00
2018-05-18T03:56:46.691Z,9.00
2018-05-18T03:59:13.051Z,8.90
2018-05-18T04:01:51.585Z,9.00
2018-05-18T04:04:30.121Z,8.90
2018-05-18T04:07:09.688Z,9.00
2018-05-18T04:09:36.774Z,9.10
2018-05-18T04:12:03.865Z,9.30
2018-05-18T04:14:31.157Z,9.20
2018-05-18T04:16:57.489Z,9.30
2018-05-18T04:19:23.830Z,9.20
2018-05-18T04:21:50.917Z,9.50
2018-05-18T04:24:17.242Z,9.40
2018-05-18T04:36:28.562Z,9.40
2018-05-18T04:38:55.656Z,9.50
2018-05-18T04:41:22.971Z,9.40
2018-05-18T04:43:50.012Z,9.70
2018-05-18T04:46:16.334Z,9.60
2018-05-18T04:48:43.585Z,9.70
2018-05-18T04:51:11.644Z,9.80
2018-05-18T04:53:37.990Z,9.80
2018-05-18T04:56:04.318Z,9.90
2018-05-18T04:58:33.253Z,10.00
2018-05-18T05:00:59.649Z,10.00
2018-05-18T05:03:26.885Z,10.00
2018-05-18T05:05:53.235Z,10.00
2018-05-18T05:08:20.317Z,10.00
2018-05-18T05:10:46.668Z,10.00
2018-05-18T05:13:13.001Z,10.00
2018-05-18T05:15:39.343Z,10.10
2018-05-18T05:18:06.711Z,10.00
2018-05-18T05:20:33.069Z,10.10
2018-05-18T05:23:00.157Z,10.30
2018-05-18T05:25:26.448Z,10.30
2018-05-18T05:27:53.508Z,10.50
2018-05-18T05:30:20.552Z,10.60
2018-05-18T05:32:47.588Z,10.70
2018-05-18T05:35:13.898Z,10.60
2018-05-18T05:37:40.297Z,10.60
2018-05-18T05:40:06.583Z,10.70
2018-05-18T05:42:33.623Z,11.00
2018-05-18T05:45:00.723Z,11.10
2018-05-18T05:47:27.014Z,11.10
2018-05-18T05:49:54.041Z,11.30
2018-05-18T05:52:20.333Z,11.30
2018-05-18T05:54:47.711Z,11.30
2018-05-18T05:57:14.998Z,11.20
2018-05-18T05:59:42.049Z,11.30
2018-05-18T06:02:09.091Z,11.30
2018-05-18T06:04:36.155Z,11.40
2018-05-18T06:07:03.212Z,11.50
2018-05-18T06:09:29.628Z,11.40
2018-05-18T06:11:55.976Z,11.50
2018-05-18T06:14:22.326Z,11.60
2018-05-18T06:16:48.603Z,11.70
2018-05-18T06:19:14.920Z,11.70
2018-05-18T06:21:41.260Z,11.80
2018-05-18T06:24:07.541Z,11.80
2018-05-18T06:26:33.821Z,11.90
2018-05-18T06:29:00.115Z,12.10
2018-05-18T06:31:26.405Z,12.30
2018-05-18T06:33:53.469Z,12.20
2018-05-18T06:36:19.761Z,12.20
2018-05-18T06:38:46.049Z,12.20
2018-05-18T06:41:12.346Z,12.00
2018-05-18T06:43:38.647Z,12.10
2018-05-18T06:46:04.979Z,12.00
2018-05-18T06:48:31.278Z,12.10
2018-05-18T06:50:57.607Z,12.20
2018-05-18T06:53:23.898Z,12.40
2018-05-18T06:55:50.960Z,12.80
2018-05-18T06:58:17.248Z,12.80
2018-05-18T07:00:43.543Z,13.00
2018-05-18T07:03:09.822Z,13.00
2018-05-18T07:05:36.155Z,12.90
2018-05-18T07:08:03.965Z,12.70
2018-05-18T07:10:30.332Z,12.70
2018-05-18T07:12:56.627Z,13.00
2018-05-18T07:15:22.933Z,13.20
2018-05-18T07:17:49.977Z,13.10
2018-05-18T07:20:17.027Z,13.10
2018-05-18T07:22:44.107Z,13.10
2018-05-18T07:25:10.405Z,13.00
2018-05-18T07:27:37.455Z,13.10
2018-05-18T07:30:04.560Z,13.20
2018-05-18T07:32:30.833Z,13.20
2018-05-18T07:34:59.084Z,13.30
2018-05-18T07:37:25.384Z,13.30
2018-05-18T07:39:51.691Z,13.40
2018-05-18T07:42:18.009Z,13.40
2018-05-18T07:44:44.299Z,13.50
2018-05-18T07:47:10.605Z,13.80
2018-05-18T07:49:36.933Z,13.90
2018-05-18T07:52:03.359Z,14.00
2018-05-18T07:54:29.752Z,14.10
2018-05-18T07:56:56.985Z,14.60
2018-05-18T07:59:24.088Z,15.00
2018-05-18T08:01:50.488Z,15.00
2018-05-18T08:04:18.527Z,15.50
2018-05-18T08:06:45.379Z,15.40
2018-05-18T08:09:13.208Z,14.50
2018-05-18T08:11:42.300Z,14.50
2018-05-18T08:14:08.687Z,14.40
2018-05-18T08:16:35.826Z,15.00
2018-05-18T08:19:02.975Z,15.30
2018-05-18T08:21:29.350Z,15.30
2018-05-18T08:23:55.757Z,16.60
2018-05-18T08:26:24.489Z,17.80
2018-05-18T08:29:04.348Z,17.70
2018-05-18T08:31:31.624Z,18.30
2018-05-18T08:33:58.737Z,18.60
2018-05-18T08:36:25.108Z,18.60
2018-05-18T08:38:51.479Z,18.30
2018-05-18T08:41:17.823Z,18.50
2018-05-18T08:43:44.148Z,19.00
2018-05-18T08:46:11.169Z,19.70
2018-05-18T08:48:38.467Z,20.10
2018-05-18T08:51:05.700Z,20.60
2018-05-18T08:53:33.237Z,19.80
2018-05-18T08:55:59.590Z,19.20
2018-05-18T09:11:21.067Z,18.20
2018-05-18T09:13:48.140Z,21.10
2018-05-18T09:16:14.587Z,21.10
2018-05-18T09:18:40.990Z,21.70
2018-05-18T09:21:08.024Z,20.80
2018-05-18T09:23:34.312Z,20.70
2018-05-18T09:26:00.625Z,20.60
2018-05-18T09:28:26.929Z,21.50
2018-05-18T09:30:53.976Z,21.40
2018-05-18T09:33:20.991Z,21.10
2018-05-18T09:35:47.284Z,21.10
2018-05-18T09:38:13.573Z,20.90
2018-05-18T09:40:39.872Z,20.90
2018-05-18T09:43:06.187Z,20.60
2018-05-18T09:45:32.487Z,21.30
2018-05-18T09:47:58.748Z,21.20
2018-05-18T09:50:25.073Z,21.20
2018-05-18T09:52:51.364Z,21.60
2018-05-18T09:55:18.557Z,21.10
2018-05-18T09:57:44.859Z,21.10
2018-05-18T10:00:11.913Z,21.50
2018-05-18T10:02:38.973Z,21.10
2018-05-18T10:05:05.283Z,21.00
2018-05-18T10:07:32.343Z,20.90
2018-05-18T10:09:58.622Z,20.90
2018-05-18T10:12:24.949Z,21.30
2018-05-18T10:14:51.215Z,21.40
2018-05-18T10:17:18.490Z,21.80
2018-05-18T10:19:44.780Z,21.80
2018-05-18T10:22:11.070Z,22.70
2018-05-18T10:24:37.359Z,23.50
2018-05-18T10:27:04.471Z,23.30
2018-05-18T10:29:30.730Z,23.30
2018-05-18T10:31:57.793Z,22.20
2018-05-18T10:34:24.814Z,21.10
2018-05-18T10:36:51.124Z,21.10
2018-05-18T10:39:17.421Z,21.20
2018-05-18T10:41:43.727Z,21.30
2018-05-18T10:44:10.009Z,20.70
2018-05-18T10:46:36.293Z,20.90
2018-05-18T10:49:03.354Z,21.20
2018-05-18T10:51:29.637Z,21.20
2018-05-18T10:53:55.931Z,21.60
2018-05-18T10:56:22.342Z,21.40
2018-05-18T10:58:48.631Z,21.10
2018-05-18T11:01:14.943Z,21.50
2018-05-18T11:03:41.268Z,21.30
2018-05-18T11:06:11.079Z,21.10
2018-05-18T11:08:37.367Z,20.30
2018-05-18T11:11:04.394Z,19.30
2018-05-18T11:13:30.691Z,19.30
2018-05-18T11:15:56.983Z,19.10
2018-05-18T11:18:24.016Z,18.30
2018-05-18T11:20:51.047Z,18.20
2018-05-18T11:23:17.340Z,18.20
2018-05-18T11:25:43.655Z,18.80
2018-05-18T11:28:09.948Z,19.40
2018-05-18T11:30:36.265Z,19.80
2018-05-18T11:33:02.619Z,19.70
2018-05-18T11:35:28.868Z,19.40
2018-05-18T11:37:55.153Z,19.60
2018-05-18T11:40:21.435Z,19.70
2018-05-18T11:42:47.751Z,19.60
2018-05-18T11:45:14.044Z,19.10
2018-05-18T11:47:40.350Z,19.30
2018-05-18T11:50:06.638Z,19.10
2018-05-18T11:52:33.688Z,19.00
2018-05-18T11:54:59.964Z,19.00
2018-05-18T11:57:26.230Z,18.90
2018-05-18T11:59:53.274Z,18.60
2018-05-18T12:02:19.578Z,18.50
2018-05-18T12:04:45.865Z,18.90
2018-05-18T12:07:12.157Z,18.70
2018-05-18T12:09:38.442Z,18.90
2018-05-18T12:12:04.735Z,18.90
2018-05-18T12:14:31.765Z,18.80
2018-05-18T12:16:58.057Z,18.80
2018-05-18T12:19:24.345Z,19.10
2018-05-18T12:21:50.634Z,19.70
2018-05-18T12:24:16.931Z,19.90
2018-05-18T12:26:43.225Z,19.90
2018-05-18T12:29:09.548Z,19.30
2018-05-18T12:31:35.941Z,19.30
2018-05-18T12:34:02.177Z,19.20
2018-05-18T12:36:28.503Z,19.30
2018-05-18T12:38:54.846Z,19.30
2018-05-18T12:41:21.157Z,19.50
2018-05-18T12:43:47.457Z,19.60
2018-05-18T12:46:13.747Z,19.70
2018-05-18T12:48:40.045Z,19.90
2018-05-18T12:51:06.339Z,20.00
2018-05-18T12:53:33.438Z,19.40
2018-05-18T12:55:59.824Z,19.30
2018-05-18T12:58:26.249Z,19.80
2018-05-18T13:00:52.587Z,19.90
2018-05-18T13:03:19.636Z,19.60
2018-05-18T13:05:47.495Z,19.70
2018-05-18T13:08:15.198Z,19.30
2018-05-18T13:10:41.538Z,19.30
2018-05-18T13:13:08.837Z,18.90
2018-05-18T13:15:35.991Z,19.00
2018-05-18T13:18:03.297Z,19.50
2018-05-18T13:20:29.656Z,19.50
2018-05-18T13:22:55.972Z,19.80
2018-05-18T13:25:22.321Z,19.30
2018-05-18T13:27:49.356Z,19.30
2018-05-18T13:30:16.520Z,19.20
2018-05-18T13:32:42.843Z,19.30
2018-05-18T13:35:10.221Z,19.20
2018-05-18T13:37:37.320Z,19.30
2018-05-18T13:40:03.697Z,19.30
2018-05-18T13:42:30.014Z,19.20
2018-05-18T13:44:56.382Z,19.20
2018-05-18T13:47:22.723Z,19.20
2018-05-18T13:49:49.068Z,19.30
2018-05-18T13:52:15.373Z,19.10
2018-05-18T13:54:42.458Z,19.70
2018-05-18T13:57:08.867Z,19.70
2018-05-18T13:59:35.635Z,19.70
2018-05-18T14:02:01.972Z,19.60
2018-05-18T14:14:13.276Z,19.50
2018-05-18T14:16:39.578Z,19.50
2018-05-18T14:19:05.885Z,19.50
2018-05-18T14:21:32.204Z,19.40
2018-05-18T14:23:58.492Z,19.30
2018-05-18T14:26:25.617Z,19.10
2018-05-18T14:28:52.595Z,19.50
2018-05-18T14:31:19.626Z,19.40
2018-05-18T14:33:45.920Z,19.30
2018-05-18T14:36:12.238Z,19.30
2018-05-18T14:38:38.555Z,19.50
2018-05-18T14:41:04.863Z,19.90
2018-05-18T14:43:31.157Z,20.10
2018-05-18T14:45:57.489Z,19.70
2018-05-18T14:48:23.772Z,19.40
2018-05-18T14:50:50.073Z,19.00
2018-05-18T14:53:17.182Z,19.00
2018-05-18T14:55:43.501Z,18.90
2018-05-18T14:58:09.852Z,18.90
2018-05-18T15:00:36.166Z,19.00
2018-05-18T15:03:02.497Z,19.10
2018-05-18T15:05:28.795Z,18.90
2018-05-18T15:07:55.137Z,19.10
2018-05-18T15:10:21.428Z,19.30
2018-05-18T15:12:47.725Z,19.40
2018-05-18T15:15:14.037Z,19.40
2018-05-18T15:17:40.337Z,18.90
2018-05-18T15:20:07.402Z,18.80
2018-05-18T15:22:33.785Z,18.70
2018-05-18T15:25:00.853Z,18.80
2018-05-18T15:27:27.177Z,18.90
2018-05-18T15:29:53.500Z,19.10
2018-05-18T15:32:19.790Z,19.00
2018-05-18T15:34:46.094Z,19.10
2018-05-18T15:37:13.229Z,18.40
2018-05-18T15:39:39.454Z,18.50
2018-05-18T15:42:05.750Z,18.50
2018-05-18T15:44:32.075Z,18.30
2018-05-18T15:46:58.376Z,18.30
2018-05-18T15:49:24.709Z,18.40
2018-05-18T15:51:51.751Z,19.00
2018-05-18T15:54:18.061Z,19.00
2018-05-18T15:56:44.364Z,18.80
2018-05-18T15:59:11.406Z,18.50
2018-05-18T16:01:37.707Z,18.50
2018-05-18T16:04:04.147Z,18.40
2018-05-18T16:06:30.486Z,18.00
2018-05-18T16:08:56.796Z,18.00
2018-05-18T16:11:23.119Z,18.00
2018-05-18T16:13:49.444Z,18.20
2018-05-18T16:16:16.490Z,18.30
2018-05-18T16:18:43.525Z,18.40
2018-05-18T16:21:10.600Z,18.40
2018-05-18T16:23:37.666Z,18.00
2018-05-18T16:26:04.006Z,18.00
2018-05-18T16:28:30.329Z,18.00
2018-05-18T16:30:56.656Z,18.10
2018-05-18T16:33:22.977Z,18.30
2018-05-18T16:35:49.272Z,18.40
2018-05-18T16:38:15.577Z,18.40
2018-05-18T16:40:41.883Z,18.30
2018-05-18T16:43:08.203Z,18.40
2018-05-18T16:45:34.529Z,18.60
2018-05-18T16:48:00.887Z,18.40
2018-05-18T16:50:27.168Z,18.50
2018-05-18T16:52:54.283Z,18.70
2018-05-18T16:55:20.545Z,18.70
2018-05-18T16:57:47.568Z,18.40
2018-05-18T17:00:13.901Z,18.40
2018-05-18T17:02:40.226Z,18.20
2018-05-18T17:05:06.529Z,18.40
2018-05-18T17:07:32.834Z,18.30
2018-05-18T17:09:59.135Z,18.20
2018-05-18T17:12:25.452Z,18.10
2018-05-18T17:14:52.485Z,17.90
2018-05-18T17:17:19.528Z,17.80
2018-05-18T17:19:45.929Z,17.80
2018-05-18T17:22:12.149Z,17.50
2018-05-18T17:24:39.168Z,17.30
2018-05-18T17:27:05.507Z,17.30
2018-05-18T17:29:31.804Z,17.30
2018-05-18T17:31:58.135Z,17.40
2018-05-18T17:34:24.438Z,17.50
2018-05-18T17:36:50.738Z,17.40
2018-05-18T17:39:17.778Z,17.30
2018-05-18T17:41:44.138Z,17.30
2018-05-18T17:44:10.442Z,17.20
2018-05-18T17:46:36.756Z,17.00
2018-05-18T17:49:03.110Z,17.10
2018-05-18T17:51:30.135Z,17.20
2018-05-18T17:53:56.423Z,17.20
2018-05-18T17:56:26.188Z,17.10
2018-05-18T17:58:53.660Z,16.70
2018-05-18T18:01:20.816Z,16.60
2018-05-18T18:03:47.950Z,16.60
2018-05-18T18:06:15.859Z,16.40
2018-05-18T18:08:42.429Z,16.40
2018-05-18T18:11:09.057Z,16.30
2018-05-18T18:13:38.336Z,16.30
2018-05-18T18:16:05.293Z,16.30
2018-05-18T18:18:31.712Z,16.30
2018-05-18T18:21:00.330Z,16.10
2018-05-18T18:33:12.668Z,16.10
2018-05-18T18:35:39.028Z,15.50
2018-05-18T18:38:06.421Z,15.50
2018-05-18T18:50:18.112Z,15.40
2018-05-18T18:52:44.538Z,15.00
2018-05-18T18:55:11.838Z,14.90
2018-05-18T19:07:23.256Z,15.00
2018-05-18T19:09:49.646Z,14.60
2018-05-18T19:12:16.753Z,14.40
2018-05-18T19:14:43.182Z,14.40
2018-05-18T19:17:09.555Z,14.40
2018-05-18T19:19:35.935Z,14.30
2018-05-18T19:22:02.611Z,14.10
2018-05-18T19:24:30.042Z,14.00
2018-05-18T19:26:57.219Z,14.00
2018-05-18T19:29:24.429Z,14.00
2018-05-18T19:31:50.785Z,13.80
2018-05-18T19:34:18.269Z,13.60
2018-05-18T19:36:45.526Z,13.60
2018-05-18T19:39:11.880Z,13.60
2018-05-18T19:41:38.977Z,13.40
2018-05-18T19:44:06.186Z,13.30
2018-05-18T19:46:32.521Z,13.30
2018-05-18T19:48:59.612Z,13.20
2018-05-18T19:51:25.972Z,13.20
2018-05-18T19:53:52.902Z,13.20
2018-05-18T19:56:19.198Z,13.00
2018-05-18T19:58:46.188Z,13.00
2018-05-18T20:01:13.262Z,12.80
2018-05-18T20:03:40.378Z,12.70
2018-05-18T20:06:06.619Z,12.70
2018-05-18T20:08:34.982Z,12.70
2018-05-18T20:11:02.276Z,12.60
2018-05-18T20:13:28.647Z,12.50
2018-05-18T20:15:54.993Z,12.40
2018-05-18T20:18:21.292Z,12.50
2018-05-18T20:20:47.590Z,12.40
2018-05-18T20:23:13.888Z,12.20
2018-05-18T20:25:40.213Z,12.20
2018-05-18T20:28:10.324Z,12.20
2018-05-18T20:30:37.592Z,12.20
2018-05-18T20:33:03.877Z,12.10
2018-05-18T20:35:30.170Z,12.10
2018-05-18T20:37:56.564Z,12.00
2018-05-18T20:40:22.914Z,12.00
2018-05-18T20:42:49.238Z,12.00
2018-05-18T20:45:15.656Z,11.80
2018-05-18T20:47:41.988Z,11.80
2018-05-18T20:50:08.331Z,11.80
2018-05-18T20:52:34.663Z,11.80
2018-05-18T20:55:00.979Z,11.70
2018-05-18T20:57:30.692Z,11.70
2018-05-18T20:59:57.010Z,11.70
2018-05-18T21:02:23.758Z,11.60
2018-05-18T21:04:50.082Z,11.60
2018-05-18T21:07:16.368Z,11.50
2018-05-18T21:09:42.739Z,11.40
2018-05-18T21:12:09.042Z,11.30
2018-05-18T21:14:35.358Z,11.30
2018-05-18T21:17:01.684Z,11.30
2018-05-18T21:19:28.229Z,11.30
2018-05-18T21:21:56.280Z,11.20
2018-05-18T21:24:22.568Z,11.20
2018-05-18T21:26:48.912Z,11.10
2018-05-18T21:29:15.335Z,11.00
2018-05-18T21:31:41.668Z,11.10
2018-05-18T21:34:09.508Z,11.00
2018-05-18T21:36:37.581Z,11.00
2018-05-18T21:39:05.771Z,11.00
2018-05-18T21:41:33.830Z,11.00
2018-05-18T21:44:01.254Z,10.80
2018-05-18T21:46:27.600Z,10.80
2018-05-18T21:48:53.886Z,10.70
2018-05-18T21:51:20.208Z,10.60
2018-05-18T21:53:47.502Z,10.70
2018-05-18T21:56:14.062Z,10.70
2018-05-18T21:58:40.360Z,10.70
2018-05-18T22:01:06.700Z,10.60
2018-05-18T22:03:33.011Z,10.60
2018-05-18T22:06:00.177Z,10.60
2018-05-18T22:08:26.494Z,10.40
2018-05-18T22:10:53.128Z,10.40
2018-05-18T22:13:19.470Z,10.40
2018-05-18T22:15:45.794Z,10.40
2018-05-18T22:18:12.155Z,10.40
2018-05-18T22:20:38.476Z,10.50
2018-05-18T22:23:05.606Z,10.30
2018-05-18T22:25:31.992Z,10.20
2018-05-18T22:27:58.350Z,10.20
2018-05-18T22:30:24.712Z,10.00
2018-05-18T22:32:52.022Z,10.20
2018-05-18T22:35:19.286Z,10.10
2018-05-18T22:37:46.354Z,10.00
2018-05-18T22:40:12.716Z,10.10
2018-05-18T22:42:39.946Z,10.10
2018-05-18T22:45:06.608Z,10.10
2018-05-18T22:47:34.056Z,10.00
2018-05-18T22:50:00.382Z,9.90
2018-05-18T22:52:26.691Z,9.90
2018-05-18T22:54:53.023Z,9.90
2018-05-18T22:57:19.347Z,9.80
2018-05-18T22:59:45.716Z,9.80
2018-05-18T23:11:57.226Z,9.70
2018-05-18T23:14:24.230Z,9.50
2018-05-18T23:16:50.576Z,9.50
2018-05-18T23:19:17.676Z,9.60
2018-05-18T23:21:44.002Z,9.60
2018-05-18T23:24:11.135Z,9.50
2018-05-18T23:26:39.000Z,9.30
2018-05-18T23:29:05.360Z,9.30
2018-05-18T23:31:32.067Z,9.40
2018-05-18T23:34:00.043Z,9.30
2018-05-18T23:36:27.338Z,9.40
2018-05-18T23:38:55.156Z,9.30
2018-05-18T23:51:06.543Z,9.30
2018-05-18T23:53:33.140Z,8.90
2018-05-18T23:55:59.499Z,8.80
2018-05-18T23:58:25.826Z,8.80
